sensor_id;sensor_type;location;lat;lon;timestamp;pressure;altitude;pressure_sealevel;temperature;humidity
19576;BME280;41589;51.196;7.074;2023-02-01T00:02:11;99344.19;;;6.37;100.00
19576;BME280;41589;51.196;7.074;2023-02-01T00:07:11;99344.63;;;6.32;100.00
19576;BME280;41589;51.196;7.074;2023-02-01T00:12:11;99360.34;;;6.26;100.00
19576;BME280;41589;51.196;7.074;2023-02-01T00:17:12;99350.81;;;6.23;100.00
19576;BME280;41589;51.196;7.074;2023-02-01T00:22:19;99356.09;;;6.18;100.00
19576;BME280;41589;51.196;7.074;2023-02-01T00:27:26;99346.78;;;6.24;100.00
19576;BME280;41589;51.196;7.074;2023-02-01T00:32:27;99343.50;;;6.29;100.00
19576;BME280;41589;51.196;7.074;2023-02-01T00:37:56;99343.03;;;6.34;100.00
19576;BME280;41589;51.196;7.074;2023-02-01T00:43:07;99335.09;;;6.29;100.00
19576;BME280;41589;51.196;7.074;2023-02-01T00:48:32;99346.41;;;6.22;100.00
19576;BME280;41589;51.196;7.074;2023-02-01T00:53:39;99323.84;;;6.33;100.00
19576;BME280;41589;51.196;7.074;2023-02-01T00:58:51;99303.91;;;6.34;100.00
19576;BME280;41589;51.196;7.074;2023-02-01T01:04:08;99301.47;;;6.33;100.00
19576;BME280;41589;51.196;7.074;2023-02-01T01:09:11;99293.41;;;6.38;100.00
19576;BME280;41589;51.196;7.074;2023-02-01T01:14:12;99297.09;;;6.32;100.00
19576;BME280;41589;51.196;7.074;2023-02-01T01:19:13;99316.03;;;6.24;100.00
19576;BME280;41589;51.196;7.074;2023-02-01T01:24:23;99319.69;;;6.21;100.00
19576;BME280;41589;51.196;7.074;2023-02-01T01:29:25;99324.25;;;6.11;100.00
19576;BME280;41589;51.196;7.074;2023-02-01T01:34:31;99317.63;;;6.02;100.00
19576;BME280;41589;51.196;7.074;2023-02-01T01:39:42;99322.81;;;6.03;100.00
19576;BME280;41589;51.196;7.074;2023-02-01T01:50:01;99330.09;;;5.97;100.00
19576;BME280;41589;51.196;7.074;2023-02-01T01:55:08;99327.44;;;5.90;100.00
19576;BME280;41589;51.196;7.074;2023-02-01T02:00:32;99313.63;;;5.83;100.00
19576;BME280;41589;51.196;7.074;2023-02-01T02:05:33;99308.16;;;5.76;100.00
19576;BME280;41589;51.196;7.074;2023-02-01T02:10:39;99301.41;;;5.73;100.00
19576;BME280;41589;51.196;7.074;2023-02-01T02:16:04;99300.13;;;5.78;100.00
19576;BME280;41589;51.196;7.074;2023-02-01T02:21:14;99289.56;;;5.66;100.00
19576;BME280;41589;51.196;7.074;2023-02-01T02:26:34;99294.53;;;5.55;100.00
19576;BME280;41589;51.196;7.074;2023-02-01T02:48:26;99281.31;;;5.35;100.00
19576;BME280;41589;51.196;7.074;2023-02-01T02:53:44;99280.16;;;5.33;100.00
19576;BME280;41589;51.196;7.074;2023-02-01T02:59:09;99278.50;;;5.35;100.00
19576;BME280;41589;51.196;7.074;2023-02-01T03:04:36;99269.28;;;5.38;100.00
19576;BME280;41589;51.196;7.074;2023-02-01T03:09:40;99280.56;;;5.31;100.00
19576;BME280;41589;51.196;7.074;2023-02-01T03:14:47;99270.72;;;5.23;100.00
19576;BME280;41589;51.196;7.074;2023-02-01T03:19:51;99269.72;;;5.37;100.00
19576;BME280;41589;51.196;7.074;2023-02-01T03:24:56;99250.59;;;5.35;100.00
19576;BME280;41589;51.196;7.074;2023-02-01T03:35:13;99262.44;;;5.43;100.00
19576;BME280;41589;51.196;7.074;2023-02-01T03:40:15;99254.09;;;5.39;100.00
19576;BME280;41589;51.196;7.074;2023-02-01T03:45:39;99250.53;;;5.39;100.00
19576;BME280;41589;51.196;7.074;2023-02-01T03:50:52;99248.47;;;5.43;100.00
19576;BME280;41589;51.196;7.074;2023-02-01T03:55:57;99239.75;;;5.41;100.00
19576;BME280;41589;51.196;7.074;2023-02-01T04:01:00;99240.88;;;5.43;100.00
19576;BME280;41589;51.196;7.074;2023-02-01T04:06:10;99240.94;;;5.40;100.00
19576;BME280;41589;51.196;7.074;2023-02-01T04:11:12;99242.16;;;5.39;100.00
19576;BME280;41589;51.196;7.074;2023-02-01T04:16:15;99233.19;;;5.51;100.00
19576;BME280;41589;51.196;7.074;2023-02-01T04:21:22;99228.00;;;5.49;100.00
19576;BME280;41589;51.196;7.074;2023-02-01T04:26:22;99205.66;;;5.49;100.00
19576;BME280;41589;51.196;7.074;2023-02-01T04:31:32;99194.66;;;5.42;100.00
19576;BME280;41589;51.196;7.074;2023-02-01T04:36:40;99199.88;;;5.40;100.00
19576;BME280;41589;51.196;7.074;2023-02-01T04:41:43;99198.94;;;5.47;100.00
19576;BME280;41589;51.196;7.074;2023-02-01T04:47:09;99209.19;;;5.53;100.00
19576;BME280;41589;51.196;7.074;2023-02-01T04:52:09;99217.22;;;5.51;100.00
19576;BME280;41589;51.196;7.074;2023-02-01T04:57:12;99209.25;;;5.50;100.00
19576;BME280;41589;51.196;7.074;2023-02-01T05:02:17;99216.78;;;5.53;100.00
19576;BME280;41589;51.196;7.074;2023-02-01T05:07:20;99218.78;;;5.52;100.00
19576;BME280;41589;51.196;7.074;2023-02-01T05:12:23;99222.22;;;5.60;100.00
19576;BME280;41589;51.196;7.074;2023-02-01T05:17:43;99228.97;;;5.63;100.00
19576;BME280;41589;51.196;7.074;2023-02-01T05:22:44;99231.47;;;5.57;100.00
19576;BME280;41589;51.196;7.074;2023-02-01T05:27:44;99217.06;;;5.59;100.00
19576;BME280;41589;51.196;7.074;2023-02-01T05:32:53;99218.78;;;5.52;100.00
19576;BME280;41589;51.196;7.074;2023-02-01T05:38:12;99221.00;;;5.41;100.00
19576;BME280;41589;51.196;7.074;2023-02-01T05:43:26;99229.66;;;5.47;100.00
19576;BME280;41589;51.196;7.074;2023-02-01T05:48:39;99225.22;;;5.49;100.00
19576;BME280;41589;51.196;7.074;2023-02-01T05:53:39;99227.53;;;5.55;100.00
19576;BME280;41589;51.196;7.074;2023-02-01T05:58:43;99222.03;;;5.51;100.00
19576;BME280;41589;51.196;7.074;2023-02-01T06:09:23;99207.31;;;5.47;100.00
19576;BME280;41589;51.196;7.074;2023-02-01T06:14:32;99205.84;;;5.39;100.00
19576;BME280;41589;51.196;7.074;2023-02-01T06:19:50;99203.38;;;5.44;100.00
19576;BME280;41589;51.196;7.074;2023-02-01T06:24:51;99219.63;;;5.49;100.00
19576;BME280;41589;51.196;7.074;2023-02-01T06:29:52;99222.84;;;5.48;100.00
19576;BME280;41589;51.196;7.074;2023-02-01T06:34:54;99232.81;;;5.49;100.00
19576;BME280;41589;51.196;7.074;2023-02-01T06:40:03;99230.31;;;5.55;100.00
19576;BME280;41589;51.196;7.074;2023-02-01T06:45:24;99239.16;;;5.49;100.00
19576;BME280;41589;51.196;7.074;2023-02-01T06:50:24;99231.66;;;5.46;100.00
19576;BME280;41589;51.196;7.074;2023-02-01T06:55:25;99238.47;;;5.45;100.00
19576;BME280;41589;51.196;7.074;2023-02-01T07:00:25;99238.13;;;5.40;100.00
19576;BME280;41589;51.196;7.074;2023-02-01T07:05:26;99246.84;;;5.45;100.00
19576;BME280;41589;51.196;7.074;2023-02-01T07:10:26;99232.88;;;5.45;100.00
19576;BME280;41589;51.196;7.074;2023-02-01T07:15:26;99245.25;;;5.44;100.00
19576;BME280;41589;51.196;7.074;2023-02-01T07:20:27;99256.50;;;5.41;100.00
19576;BME280;41589;51.196;7.074;2023-02-01T07:25:27;99269.78;;;5.57;100.00
19576;BME280;41589;51.196;7.074;2023-02-01T07:30:28;99268.56;;;5.58;100.00
19576;BME280;41589;51.196;7.074;2023-02-01T07:35:28;99265.75;;;5.58;100.00
19576;BME280;41589;51.196;7.074;2023-02-01T07:40:29;99278.88;;;5.61;100.00
19576;BME280;41589;51.196;7.074;2023-02-01T07:45:30;99267.34;;;5.59;100.00
19576;BME280;41589;51.196;7.074;2023-02-01T07:50:31;99278.41;;;5.66;100.00
19576;BME280;41589;51.196;7.074;2023-02-01T07:55:31;99275.66;;;5.62;100.00
19576;BME280;41589;51.196;7.074;2023-02-01T08:00:32;99280.94;;;5.57;100.00
19576;BME280;41589;51.196;7.074;2023-02-01T08:05:55;99288.25;;;5.50;100.00
19576;BME280;41589;51.196;7.074;2023-02-01T08:11:00;99297.63;;;5.60;100.00
19576;BME280;41589;51.196;7.074;2023-02-01T08:16:02;99279.59;;;5.65;100.00
19576;BME280;41589;51.196;7.074;2023-02-01T08:21:19;99267.69;;;5.61;100.00
19576;BME280;41589;51.196;7.074;2023-02-01T08:26:22;99273.91;;;5.72;100.00
19576;BME280;41589;51.196;7.074;2023-02-01T08:31:28;99290.66;;;5.72;100.00
19576;BME280;41589;51.196;7.074;2023-02-01T08:36:30;99305.22;;;5.60;100.00
19576;BME280;41589;51.196;7.074;2023-02-01T08:41:30;99303.53;;;5.66;100.00
19576;BME280;41589;51.196;7.074;2023-02-01T08:46:31;99313.13;;;5.65;100.00
19576;BME280;41589;51.196;7.074;2023-02-01T08:51:31;99322.97;;;5.73;100.00
19576;BME280;41589;51.196;7.074;2023-02-01T08:56:32;99330.97;;;5.71;100.00
19576;BME280;41589;51.196;7.074;2023-02-01T09:01:32;99330.97;;;5.71;100.00
19576;BME280;41589;51.196;7.074;2023-02-01T09:06:33;99318.81;;;5.58;100.00
19576;BME280;41589;51.196;7.074;2023-02-01T09:11:33;99315.00;;;5.71;100.00
19576;BME280;41589;51.196;7.074;2023-02-01T09:16:34;99310.88;;;5.79;100.00
19576;BME280;41589;51.196;7.074;2023-02-01T09:21:36;99309.53;;;5.88;100.00
19576;BME280;41589;51.196;7.074;2023-02-01T09:26:37;99301.50;;;5.90;100.00
19576;BME280;41589;51.196;7.074;2023-02-01T09:31:38;99297.69;;;5.80;100.00
19576;BME280;41589;51.196;7.074;2023-02-01T09:36:40;99301.22;;;5.84;100.00
19576;BME280;41589;51.196;7.074;2023-02-01T09:41:49;99293.97;;;5.87;100.00
19576;BME280;41589;51.196;7.074;2023-02-01T09:46:54;99293.97;;;5.87;100.00
19576;BME280;41589;51.196;7.074;2023-02-01T09:51:56;99290.22;;;5.97;100.00
19576;BME280;41589;51.196;7.074;2023-02-01T09:57:13;99292.34;;;5.89;100.00
19576;BME280;41589;51.196;7.074;2023-02-01T10:02:21;99288.41;;;5.87;100.00
19576;BME280;41589;51.196;7.074;2023-02-01T10:28:53;99283.53;;;5.91;100.00
19576;BME280;41589;51.196;7.074;2023-02-01T10:33:58;99279.78;;;5.77;100.00
19576;BME280;41589;51.196;7.074;2023-02-01T10:39:22;99279.69;;;5.81;100.00
19576;BME280;41589;51.196;7.074;2023-02-01T10:44:28;99279.41;;;5.75;100.00
19576;BME280;41589;51.196;7.074;2023-02-01T10:50:02;99293.31;;;5.79;100.00
19576;BME280;41589;51.196;7.074;2023-02-01T10:55:27;99284.03;;;5.86;100.00
19576;BME280;41589;51.196;7.074;2023-02-01T11:00:36;99268.28;;;5.95;100.00
19576;BME280;41589;51.196;7.074;2023-02-01T11:05:46;99260.03;;;5.88;100.00
19576;BME280;41589;51.196;7.074;2023-02-01T11:10:47;99253.75;;;6.04;100.00
19576;BME280;41589;51.196;7.074;2023-02-01T11:16:03;99261.81;;;5.98;100.00
19576;BME280;41589;51.196;7.074;2023-02-01T11:21:06;99253.09;;;5.96;100.00
19576;BME280;41589;51.196;7.074;2023-02-01T11:26:12;99258.41;;;6.10;100.00
19576;BME280;41589;51.196;7.074;2023-02-01T11:31:16;99250.09;;;6.07;100.00
19576;BME280;41589;51.196;7.074;2023-02-01T11:36:23;99236.03;;;6.10;100.00
19576;BME280;41589;51.196;7.074;2023-02-01T11:41:27;99241.06;;;6.19;100.00
19576;BME280;41589;51.196;7.074;2023-02-01T11:46:30;99234.91;;;6.28;100.00
19576;BME280;41589;51.196;7.074;2023-02-01T11:51:44;99221.78;;;6.25;100.00
19576;BME280;41589;51.196;7.074;2023-02-01T11:57:17;99225.63;;;6.31;100.00
19576;BME280;41589;51.196;7.074;2023-02-01T12:13:02;99190.94;;;6.28;100.00
19576;BME280;41589;51.196;7.074;2023-02-01T12:18:26;99183.34;;;6.29;100.00
19576;BME280;41589;51.196;7.074;2023-02-01T12:29:11;99191.44;;;6.43;100.00
19576;BME280;41589;51.196;7.074;2023-02-01T12:34:34;99177.22;;;6.37;100.00
19576;BME280;41589;51.196;7.074;2023-02-01T12:39:49;99187.16;;;6.38;100.00
19576;BME280;41589;51.196;7.074;2023-02-01T12:44:56;99183.00;;;6.47;100.00
19576;BME280;41589;51.196;7.074;2023-02-01T12:50:17;99161.47;;;6.44;100.00
19576;BME280;41589;51.196;7.074;2023-02-01T13:00:40;99148.06;;;6.55;100.00
19576;BME280;41589;51.196;7.074;2023-02-01T13:05:53;99162.47;;;6.53;100.00
19576;BME280;41589;51.196;7.074;2023-02-01T13:11:00;99145.19;;;6.58;100.00
19576;BME280;41589;51.196;7.074;2023-02-01T13:16:19;99137.66;;;6.55;100.00
19576;BME280;41589;51.196;7.074;2023-02-01T13:21:31;99125.84;;;6.64;100.00
19576;BME280;41589;51.196;7.074;2023-02-01T13:26:33;99132.84;;;6.72;100.00
19576;BME280;41589;51.196;7.074;2023-02-01T13:42:15;99140.03;;;6.73;100.00
19576;BME280;41589;51.196;7.074;2023-02-01T13:47:27;99130.00;;;6.76;100.00
19576;BME280;41589;51.196;7.074;2023-02-01T13:52:37;99126.38;;;6.75;100.00
19576;BME280;41589;51.196;7.074;2023-02-01T13:57:41;99140.03;;;6.73;100.00
19576;BME280;41589;51.196;7.074;2023-02-01T14:13:33;99127.00;;;6.83;100.00
19576;BME280;41589;51.196;7.074;2023-02-01T14:23:40;99137.06;;;6.80;100.00
19576;BME280;41589;51.196;7.074;2023-02-01T14:28:50;99143.78;;;6.83;100.00
19576;BME280;41589;51.196;7.074;2023-02-01T14:33:56;99154.81;;;6.90;100.00
19576;BME280;41589;51.196;7.074;2023-02-01T14:38:59;99146.25;;;6.97;100.00
19576;BME280;41589;51.196;7.074;2023-02-01T14:49:02;99159.69;;;7.02;100.00
19576;BME280;41589;51.196;7.074;2023-02-01T14:54:03;99161.03;;;6.98;100.00
19576;BME280;41589;51.196;7.074;2023-02-01T14:59:11;99163.63;;;7.05;100.00
19576;BME280;41589;51.196;7.074;2023-02-01T15:04:16;99153.50;;;7.11;100.00
19576;BME280;41589;51.196;7.074;2023-02-01T15:09:27;99150.06;;;7.03;100.00
19576;BME280;41589;51.196;7.074;2023-02-01T15:14:32;99174.38;;;7.06;100.00
19576;BME280;41589;51.196;7.074;2023-02-01T15:19:33;99161.00;;;7.14;100.00
19576;BME280;41589;51.196;7.074;2023-02-01T15:24:33;99162.34;;;7.09;100.00
19576;BME280;41589;51.196;7.074;2023-02-01T15:29:37;99177.00;;;7.13;100.00
19576;BME280;41589;51.196;7.074;2023-02-01T15:34:49;99174.66;;;7.12;100.00
19576;BME280;41589;51.196;7.074;2023-02-01T15:40:17;99176.31;;;7.09;100.00
19576;BME280;41589;51.196;7.074;2023-02-01T15:45:21;99167.84;;;7.13;100.00
19576;BME280;41589;51.196;7.074;2023-02-01T15:50:22;99177.47;;;7.12;100.00
19576;BME280;41589;51.196;7.074;2023-02-01T15:55:36;99171.69;;;7.19;100.00
19576;BME280;41589;51.196;7.074;2023-02-01T16:00:47;99175.00;;;7.14;100.00
19576;BME280;41589;51.196;7.074;2023-02-01T16:05:55;99177.00;;;7.13;100.00
19576;BME280;41589;51.196;7.074;2023-02-01T16:11:14;99181.38;;;7.14;100.00
19576;BME280;41589;51.196;7.074;2023-02-01T16:16:15;99191.19;;;7.22;100.00
19576;BME280;41589;51.196;7.074;2023-02-01T16:21:15;99186.47;;;7.19;100.00
19576;BME280;41589;51.196;7.074;2023-02-01T16:26:16;99183.75;;;7.32;100.00
19576;BME280;41589;51.196;7.074;2023-02-01T16:31:18;99175.06;;;7.26;100.00
19576;BME280;41589;51.196;7.074;2023-02-01T16:36:21;99180.59;;;7.30;100.00
19576;BME280;41589;51.196;7.074;2023-02-01T16:41:23;99213.94;;;7.24;100.00
19576;BME280;41589;51.196;7.074;2023-02-01T16:46:26;99203.78;;;7.14;100.00
19576;BME280;41589;51.196;7.074;2023-02-01T16:51:31;99216.31;;;7.10;100.00
19576;BME280;41589;51.196;7.074;2023-02-01T16:56:33;99201.19;;;7.07;100.00
19576;BME280;41589;51.196;7.074;2023-02-01T17:01:34;99200.38;;;7.07;100.00
19576;BME280;41589;51.196;7.074;2023-02-01T17:06:35;99219.59;;;7.05;100.00
19576;BME280;41589;51.196;7.074;2023-02-01T17:11:37;99224.75;;;7.06;100.00
19576;BME280;41589;51.196;7.074;2023-02-01T17:16:39;99219.16;;;7.06;100.00
19576;BME280;41589;51.196;7.074;2023-02-01T17:21:43;99222.88;;;7.19;100.00
19576;BME280;41589;51.196;7.074;2023-02-01T17:26:44;99230.53;;;7.15;100.00
19576;BME280;41589;51.196;7.074;2023-02-01T17:31:48;99234.50;;;7.18;100.00
19576;BME280;41589;51.196;7.074;2023-02-01T17:36:48;99246.50;;;7.18;100.00
19576;BME280;41589;51.196;7.074;2023-02-01T17:41:49;99247.28;;;7.19;100.00
19576;BME280;41589;51.196;7.074;2023-02-01T17:46:49;99247.72;;;7.34;100.00
19576;BME280;41589;51.196;7.074;2023-02-01T17:51:50;99256.09;;;7.34;100.00
19576;BME280;41589;51.196;7.074;2023-02-01T17:56:51;99247.81;;;7.30;100.00
19576;BME280;41589;51.196;7.074;2023-02-01T18:01:51;99245.19;;;7.39;100.00
19576;BME280;41589;51.196;7.074;2023-02-01T18:06:52;99245.25;;;7.36;100.00
19576;BME280;41589;51.196;7.074;2023-02-01T18:11:52;99249.09;;;7.42;100.00
19576;BME280;41589;51.196;7.074;2023-02-01T18:16:54;99238.78;;;7.39;100.00
19576;BME280;41589;51.196;7.074;2023-02-01T18:21:55;99238.78;;;7.39;100.00
19576;BME280;41589;51.196;7.074;2023-02-01T18:26:56;99256.44;;;7.36;100.00
19576;BME280;41589;51.196;7.074;2023-02-01T18:31:58;99242.44;;;7.36;100.00
19576;BME280;41589;51.196;7.074;2023-02-01T18:36:59;99247.09;;;7.42;100.00
19576;BME280;41589;51.196;7.074;2023-02-01T18:41:59;99240.88;;;7.35;100.00
19576;BME280;41589;51.196;7.074;2023-02-01T18:46:59;99233.53;;;7.41;100.00
19576;BME280;41589;51.196;7.074;2023-02-01T18:52:00;99250.78;;;7.39;100.00
19576;BME280;41589;51.196;7.074;2023-02-01T18:57:00;99244.19;;;7.46;100.00
19576;BME280;41589;51.196;7.074;2023-02-01T19:02:01;99252.41;;;7.37;100.00
19576;BME280;41589;51.196;7.074;2023-02-01T19:07:03;99258.13;;;7.33;100.00
19576;BME280;41589;51.196;7.074;2023-02-01T19:12:03;99256.78;;;7.38;100.00
19576;BME280;41589;51.196;7.074;2023-02-01T19:17:04;99257.84;;;7.44;100.00
19576;BME280;41589;51.196;7.074;2023-02-01T19:22:04;99252.06;;;7.35;100.00
19576;BME280;41589;51.196;7.074;2023-02-01T19:27:04;99252.41;;;7.37;100.00
19576;BME280;41589;51.196;7.074;2023-02-01T19:32:09;99254.97;;;7.31;100.00
19576;BME280;41589;51.196;7.074;2023-02-01T19:37:10;99252.78;;;7.39;100.00
19576;BME280;41589;51.196;7.074;2023-02-01T19:42:11;99241.16;;;7.40;100.00
19576;BME280;41589;51.196;7.074;2023-02-01T19:47:12;99236.13;;;7.48;100.00
19576;BME280;41589;51.196;7.074;2023-02-01T19:52:12;99230.28;;;7.42;100.00
19576;BME280;41589;51.196;7.074;2023-02-01T19:57:12;99231.41;;;7.45;100.00
19576;BME280;41589;51.196;7.074;2023-02-01T20:02:14;99224.50;;;7.49;100.00
19576;BME280;41589;51.196;7.074;2023-02-01T20:07:14;99237.47;;;7.43;100.00
19576;BME280;41589;51.196;7.074;2023-02-01T20:12:15;99233.09;;;7.42;100.00
19576;BME280;41589;51.196;7.074;2023-02-01T20:17:16;99230.38;;;7.39;100.00
19576;BME280;41589;51.196;7.074;2023-02-01T20:22:17;99236.22;;;7.44;100.00
19576;BME280;41589;51.196;7.074;2023-02-01T20:27:19;99214.63;;;7.45;100.00
19576;BME280;41589;51.196;7.074;2023-02-01T20:32:19;99207.44;;;7.44;100.00
19576;BME280;41589;51.196;7.074;2023-02-01T20:37:20;99200.72;;;7.41;100.00
19576;BME280;41589;51.196;7.074;2023-02-01T20:42:20;99207.78;;;7.46;100.00
19576;BME280;41589;51.196;7.074;2023-02-01T20:47:21;99217.84;;;7.43;100.00
19576;BME280;41589;51.196;7.074;2023-02-01T20:52:22;99232.13;;;7.49;100.00
19576;BME280;41589;51.196;7.074;2023-02-01T20:57:22;99252.25;;;7.44;100.00
19576;BME280;41589;51.196;7.074;2023-02-01T21:02:23;99265.03;;;7.61;100.00
19576;BME280;41589;51.196;7.074;2023-02-01T21:07:23;99260.09;;;7.65;100.00
19576;BME280;41589;51.196;7.074;2023-02-01T21:12:24;99248.47;;;7.67;100.00
19576;BME280;41589;51.196;7.074;2023-02-01T21:17:24;99268.50;;;7.65;100.00
19576;BME280;41589;51.196;7.074;2023-02-01T21:22:27;99255.41;;;7.62;100.00
19576;BME280;41589;51.196;7.074;2023-02-01T21:27:27;99264.66;;;7.75;100.00
19576;BME280;41589;51.196;7.074;2023-02-01T21:32:28;99280.69;;;7.75;100.00
19576;BME280;41589;51.196;7.074;2023-02-01T21:37:28;99294.06;;;7.67;100.00
19576;BME280;41589;51.196;7.074;2023-02-01T21:42:29;99284.94;;;7.79;100.00
19576;BME280;41589;51.196;7.074;2023-02-01T21:47:30;99284.25;;;7.92;100.00
19576;BME280;41589;51.196;7.074;2023-02-01T21:52:30;99283.31;;;7.82;100.00
19576;BME280;41589;51.196;7.074;2023-02-01T21:57:32;99278.94;;;7.81;100.00
19576;BME280;41589;51.196;7.074;2023-02-01T22:02:34;99293.97;;;7.87;100.00
19576;BME280;41589;51.196;7.074;2023-02-01T22:07:34;99294.06;;;7.83;100.00
19576;BME280;41589;51.196;7.074;2023-02-01T22:12:35;99303.94;;;7.88;100.00
19576;BME280;41589;51.196;7.074;2023-02-01T22:17:35;99298.78;;;7.87;100.00
19576;BME280;41589;51.196;7.074;2023-02-01T22:22:36;99299.50;;;7.91;100.00
19576;BME280;41589;51.196;7.074;2023-02-01T22:27:36;99302.97;;;7.95;100.00
19576;BME280;41589;51.196;7.074;2023-02-01T22:32:36;99288.63;;;7.93;100.00
19576;BME280;41589;51.196;7.074;2023-02-01T22:37:37;99297.38;;;7.95;100.00
19576;BME280;41589;51.196;7.074;2023-02-01T22:42:37;99304.56;;;7.96;100.00
19576;BME280;41589;51.196;7.074;2023-02-01T22:47:37;99307.19;;;7.87;100.00
19576;BME280;41589;51.196;7.074;2023-02-01T22:52:38;99316.09;;;7.98;100.00
19576;BME280;41589;51.196;7.074;2023-02-01T22:57:38;99322.50;;;7.98;100.00
19576;BME280;41589;51.196;7.074;2023-02-01T23:02:42;99334.50;;;7.99;100.00
19576;BME280;41589;51.196;7.074;2023-02-01T23:07:48;99325.13;;;7.89;100.00
19576;BME280;41589;51.196;7.074;2023-02-01T23:12:48;99325.31;;;7.98;100.00
19576;BME280;41589;51.196;7.074;2023-02-01T23:17:49;99341.53;;;7.91;100.00
19576;BME280;41589;51.196;7.074;2023-02-01T23:22:49;99343.56;;;7.90;100.00
19576;BME280;41589;51.196;7.074;2023-02-01T23:27:50;99355.47;;;7.94;100.00
19576;BME280;41589;51.196;7.074;2023-02-01T23:32:50;99353.59;;;8.04;100.00
19576;BME280;41589;51.196;7.074;2023-02-01T23:37:50;99354.63;;;8.10;100.00
19576;BME280;41589;51.196;7.074;2023-02-01T23:42:51;99362.63;;;8.11;100.00
19576;BME280;41589;51.196;7.074;2023-02-01T23:48:10;99354.56;;;8.13;100.00
19576;BME280;41589;51.196;7.074;2023-02-01T23:53:10;99368.56;;;8.13;100.00
19576;BME280;41589;51.196;7.074;2023-02-01T23:58:10;99365.94;;;8.06;100.00
